Time;durP1;ratioP1;P1;durP2;ratioP2;P2;SDS_P1;SDS_P2;PMS_P1;PMS_P2;Temp;Humidity;BMP_temperature;BMP_pressure;BME280_temperature;BME280_humidity;BME280_pressure;Samples;Min_cycle;Max_cycle;Signal;HPM_P1;HPM_P2
2022/01/27 00:02:02;;;;;;;6.07;5.00;;;3.20;99.90;;;;;;5078817;28;20495;-71
2022/01/27 00:04:36;;;;;;;10.10;8.98;;;3.20;99.90;;;;;;5093754;22;20227;-74
2022/01/27 00:07:03;;;;;;;10.07;6.22;;;3.20;99.90;;;;;;5066602;28;20603;-73
2022/01/27 00:09:45;;;;;;;6.28;4.32;;;3.20;99.90;;;;;;5067459;28;20266;-73
2022/01/27 00:12:15;;;;;;;7.05;5.18;;;3.20;99.90;;;;;;5071200;28;20217;-74
2022/01/27 00:14:46;;;;;;;10.05;6.63;;;3.30;99.90;;;;;;5071136;28;20264;-72
2022/01/27 00:17:14;;;;;;;12.10;8.45;;;3.30;99.90;;;;;;5070617;28;20229;-73
2022/01/27 00:19:41;;;;;;;17.70;9.70;;;3.20;99.90;;;;;;5069345;28;20206;-72
2022/01/27 00:22:08;;;;;;;8.30;5.93;;;3.20;99.90;;;;;;5068038;28;20197;-73
2022/01/27 00:24:36;;;;;;;8.38;6.72;;;3.20;99.90;;;;;;5069452;28;20225;-73
2022/01/27 00:27:03;;;;;;;8.05;5.10;;;3.20;99.90;;;;;;5069528;28;20665;-73
2022/01/27 00:29:30;;;;;;;6.72;5.43;;;3.20;99.90;;;;;;5067654;28;20209;-73
2022/01/27 00:31:56;;;;;;;17.17;7.78;;;3.20;99.90;;;;;;5069492;28;20263;-72
2022/01/27 00:34:23;;;;;;;9.55;6.93;;;3.10;99.90;;;;;;5068883;28;20217;-72
2022/01/27 00:36:50;;;;;;;9.65;6.43;;;3.00;99.90;;;;;;5069235;28;20193;-73
2022/01/27 00:39:17;;;;;;;11.60;7.45;;;3.00;99.90;;;;;;5068703;28;20262;-72
2022/01/27 00:41:45;;;;;;;14.73;8.55;;;3.00;99.90;;;;;;5069723;28;20209;-73
2022/01/27 00:44:11;;;;;;;9.23;6.50;;;3.00;99.90;;;;;;5067826;28;20217;-73
2022/01/27 00:46:38;;;;;;;9.48;5.35;;;2.90;99.90;;;;;;5069865;28;20750;-73
2022/01/27 00:49:04;;;;;;;7.32;5.25;;;2.80;99.90;;;;;;5067742;28;20201;-71
2022/01/27 00:51:36;;;;;;;12.75;7.45;;;2.80;99.90;;;;;;5066877;28;20205;-73
2022/01/27 00:54:06;;;;;;;11.52;7.80;;;2.70;99.90;;;;;;5066775;28;20769;-72
2022/01/27 00:56:42;;;;;;;16.05;6.40;;;2.70;99.90;;;;;;5067950;28;20193;-73
2022/01/27 00:59:35;;;;;;;13.95;8.13;;;2.70;99.90;;;;;;5063226;28;20288;-72
2022/01/27 01:02:11;;;;;;;15.35;8.05;;;2.70;99.90;;;;;;5068110;28;20779;-73
2022/01/27 01:04:42;;;;;;;10.13;5.85;;;2.70;99.90;;;;;;5064398;28;20263;-73
2022/01/27 01:07:10;;;;;;;9.23;7.30;;;2.60;99.90;;;;;;5056281;28;20233;-73
2022/01/27 01:10:32;;;;;;;16.73;9.00;;;2.60;99.90;;;;;;5067195;28;20624;-73
2022/01/27 01:15:38;;;;;;;11.85;7.80;;;2.60;99.90;;;;;;5057439;28;20534;-73
2022/01/27 01:18:19;;;;;;;12.25;5.82;;;2.50;99.90;;;;;;5054116;28;20241;-72
2022/01/27 01:21:17;;;;;;;11.90;7.03;;;2.50;99.90;;;;;;5057451;28;20202;-72
2022/01/27 01:29:51;;;;;;;22.02;8.15;;;2.50;99.90;;;;;;5064409;28;20393;-72
2022/01/27 01:32:30;;;;;;;10.43;6.43;;;2.50;99.90;;;;;;5062569;28;20205;-73
2022/01/27 01:34:58;;;;;;;14.32;6.97;;;2.50;99.90;;;;;;5051474;28;20597;-73
2022/01/27 01:37:25;;;;;;;10.40;6.95;;;2.50;99.90;;;;;;5062146;28;20205;-72
2022/01/27 01:39:52;;;;;;;4.47;3.65;;;2.50;99.90;;;;;;5064786;28;20816;-73
2022/01/27 01:42:19;;;;;;;7.10;5.30;;;2.50;99.90;;;;;;5061059;28;20201;-73
2022/01/27 01:44:48;;;;;;;10.02;7.00;;;2.50;99.90;;;;;;5065295;28;20744;-73
2022/01/27 01:47:15;;;;;;;7.20;5.40;;;2.40;99.90;;;;;;5054853;28;20679;-73
2022/01/27 01:49:43;;;;;;;8.85;4.68;;;2.50;99.90;;;;;;5063199;28;20199;-73
2022/01/27 01:52:09;;;;;;;7.72;6.82;;;2.50;99.90;;;;;;5065695;28;20209;-73
2022/01/27 01:54:36;;;;;;;12.52;7.85;;;2.50;99.90;;;;;;5065063;28;20229;-72
2022/01/27 01:57:03;;;;;;;11.23;6.35;;;2.50;99.90;;;;;;5069513;28;20250;-73
2022/01/27 01:59:30;;;;;;;10.38;6.53;;;2.50;99.90;;;;;;5058016;28;20209;-73
2022/01/27 02:01:58;;;;;;;16.15;5.90;;;2.50;99.90;;;;;;5063998;28;20201;-73
2022/01/27 02:04:24;;;;;;;7.50;5.75;;;2.50;99.90;;;;;;5059122;28;20256;-73
2022/01/27 02:06:56;;;;;;;8.80;5.10;;;2.50;99.90;;;;;;5056213;28;20665;-72
2022/01/27 02:09:36;;;;;;;14.63;6.10;;;2.50;99.90;;;;;;5062209;28;20301;-72
2022/01/27 02:17:59;;;;;;;8.95;5.80;;;2.50;99.90;;;;;;5060348;28;20200;-73
2022/01/27 02:20:27;;;;;;;4.55;3.67;;;2.50;99.90;;;;;;5064988;28;20227;-72
2022/01/27 02:22:54;;;;;;;9.60;4.65;;;2.50;99.90;;;;;;5063744;28;20259;-73
2022/01/27 02:25:21;;;;;;;9.13;8.43;;;2.50;99.90;;;;;;5062851;28;20210;-73
2022/01/27 02:27:52;;;;;;;15.25;6.43;;;2.50;99.90;;;;;;5059848;28;20270;-73
2022/01/27 02:30:22;;;;;;;9.55;4.53;;;2.50;99.90;;;;;;5051815;28;20280;-73
2022/01/27 02:32:52;;;;;;;12.38;4.82;;;2.50;99.90;;;;;;5064870;28;20232;-73
2022/01/27 02:35:19;;;;;;;8.68;5.03;;;2.50;99.90;;;;;;5071125;28;20208;-72
2022/01/27 02:37:48;;;;;;;6.85;4.88;;;2.60;99.90;;;;;;5067887;28;21471;-73
2022/01/27 02:40:20;;;;;;;13.07;4.90;;;2.60;99.90;;;;;;5067734;28;20213;-74
2022/01/27 02:42:47;;;;;;;6.25;4.72;;;2.60;99.90;;;;;;5068203;28;20252;-73
2022/01/27 02:45:18;;;;;;;12.40;7.65;;;2.60;99.90;;;;;;5059593;28;20251;-73
2022/01/27 02:47:45;;;;;;;5.80;4.88;;;2.60;99.90;;;;;;5067182;28;20221;-73
2022/01/27 02:50:12;;;;;;;6.90;5.88;;;2.60;99.90;;;;;;5071995;28;20201;-73
2022/01/27 02:52:38;;;;;;;9.02;6.25;;;2.60;99.90;;;;;;5071693;28;20198;-74
2022/01/27 02:55:08;;;;;;;7.95;5.90;;;2.60;99.90;;;;;;5070463;28;20312;-72
2022/01/27 02:57:35;;;;;;;7.65;5.32;;;2.60;99.90;;;;;;5070695;28;20201;-72
2022/01/27 03:00:02;;;;;;;11.07;6.45;;;2.60;99.90;;;;;;5064164;28;20201;-72
2022/01/27 03:02:28;;;;;;;7.25;5.43;;;2.60;99.90;;;;;;5071542;28;20201;-72
2022/01/27 03:04:55;;;;;;;6.85;6.25;;;2.60;99.90;;;;;;5070256;28;20233;-74
2022/01/27 03:07:22;;;;;;;10.45;5.57;;;2.70;99.90;;;;;;5056274;28;20287;-73
2022/01/27 03:09:48;;;;;;;7.78;4.88;;;2.70;99.90;;;;;;5070236;28;20655;-72
2022/01/27 03:12:17;;;;;;;10.68;6.28;;;2.70;99.90;;;;;;5056623;28;20256;-72
2022/01/27 03:14:44;;;;;;;6.22;4.15;;;2.70;99.90;;;;;;5064186;28;20218;-73
2022/01/27 03:17:12;;;;;;;10.80;4.63;;;2.60;99.90;;;;;;5070575;28;20197;-72
2022/01/27 03:19:39;;;;;;;5.15;4.55;;;2.70;99.90;;;;;;5070897;28;20948;-73
2022/01/27 03:22:07;;;;;;;8.93;5.05;;;2.70;99.90;;;;;;5057212;28;20699;-73
2022/01/27 03:24:34;;;;;;;6.47;4.80;;;2.70;99.90;;;;;;5070664;28;20229;-73
2022/01/27 03:27:02;;;;;;;6.55;5.88;;;2.70;99.90;;;;;;5068713;28;20282;-71
2022/01/27 03:29:30;;;;;;;7.50;2.83;;;2.70;99.90;;;;;;5069713;28;20278;-71
2022/01/27 03:31:57;;;;;;;5.57;4.97;;;2.80;99.90;;;;;;5064328;28;20706;-73
2022/01/27 03:34:24;;;;;;;4.05;3.22;;;2.80;99.90;;;;;;5070510;28;20236;-72
2022/01/27 03:36:51;;;;;;;4.45;4.03;;;2.80;99.90;;;;;;5053610;28;20293;-72
2022/01/27 03:39:21;;;;;;;16.58;4.22;;;2.80;99.90;;;;;;5068652;28;20626;-72
2022/01/27 03:41:50;;;;;;;6.47;5.50;;;2.80;99.90;;;;;;5069550;28;20578;-73
2022/01/27 03:44:17;;;;;;;3.60;3.28;;;2.70;99.90;;;;;;5057560;28;20260;-73
2022/01/27 03:46:45;;;;;;;7.50;4.65;;;2.70;99.90;;;;;;5051363;28;20241;-73
2022/01/27 03:49:12;;;;;;;6.18;4.35;;;2.80;99.90;;;;;;5057250;28;20251;-73
2022/01/27 03:51:39;;;;;;;6.80;3.80;;;2.80;99.90;;;;;;5065526;28;20206;-73
2022/01/27 03:54:06;;;;;;;12.50;5.40;;;2.80;99.90;;;;;;5056906;28;20226;-72
2022/01/27 03:56:32;;;;;;;9.52;4.93;;;2.80;99.90;;;;;;5067949;28;20709;-72
2022/01/27 03:58:59;;;;;;;5.13;4.03;;;2.80;99.90;;;;;;5058625;28;20202;-73
2022/01/27 04:01:26;;;;;;;7.93;4.57;;;2.80;99.90;;;;;;5063632;28;20202;-73
2022/01/27 04:03:57;;;;;;;7.40;3.75;;;2.70;99.90;;;;;;5051495;28;20241;-73
2022/01/27 04:06:32;;;;;;;7.70;4.22;;;2.70;99.90;;;;;;5061956;28;20221;-73
2022/01/27 04:08:59;;;;;;;8.43;4.85;;;2.70;99.90;;;;;;5068859;28;20194;-72
2022/01/27 04:11:26;;;;;;;5.30;4.80;;;2.70;99.90;;;;;;5060602;28;20252;-72
2022/01/27 04:13:52;;;;;;;9.10;4.47;;;2.70;99.90;;;;;;5050915;28;20225;-72
2022/01/27 04:16:19;;;;;;;5.93;3.20;;;2.70;99.90;;;;;;5068715;28;20205;-72
2022/01/27 04:18:46;;;;;;;6.68;3.30;;;2.70;99.90;;;;;;5065507;28;20217;-72
2022/01/27 04:21:15;;;;;;;3.40;2.95;;;2.70;99.90;;;;;;5069225;28;20233;-71
2022/01/27 04:23:42;;;;;;;7.65;6.38;;;2.70;99.90;;;;;;5057857;28;20313;-72
2022/01/27 04:26:09;;;;;;;4.95;2.80;;;2.70;99.90;;;;;;5066105;28;20209;-72
2022/01/27 04:28:37;;;;;;;10.05;4.97;;;2.70;99.90;;;;;;5066995;28;20210;-74
2022/01/27 04:31:07;;;;;;;8.40;3.97;;;2.70;99.90;;;;;;5067008;28;20258;-71
2022/01/27 04:33:35;;;;;;;6.68;4.40;;;2.70;99.90;;;;;;5063385;28;21120;-73
2022/01/27 04:36:08;;;;;;;7.53;5.10;;;2.70;99.90;;;;;;5069780;28;20192;-72
2022/01/27 04:38:41;;;;;;;9.65;5.82;;;2.70;99.90;;;;;;5083471;28;20282;-72
2022/01/27 04:41:14;;;;;;;3.47;3.15;;;2.70;99.90;;;;;;5062997;28;20197;-72
2022/01/27 04:43:47;;;;;;;6.93;4.88;;;2.80;99.90;;;;;;5076099;28;20309;-73
2022/01/27 04:46:23;;;;;;;6.47;2.75;;;2.80;99.90;;;;;;5059519;28;20432;-72
2022/01/27 04:48:53;;;;;;;6.70;4.28;;;2.70;99.90;;;;;;5055820;28;20312;-73
2022/01/27 04:51:22;;;;;;;5.13;4.07;;;2.80;99.90;;;;;;5061358;28;20194;-71
2022/01/27 04:53:56;;;;;;;7.55;4.00;;;2.80;99.90;;;;;;5061781;28;20213;-72
2022/01/27 04:56:24;;;;;;;3.33;2.53;;;2.80;99.90;;;;;;5068412;28;20201;-72
2022/01/27 04:58:55;;;;;;;3.50;3.00;;;2.80;99.90;;;;;;5061536;28;20205;-72
2022/01/27 05:01:29;;;;;;;4.57;2.53;;;2.80;99.90;;;;;;5066976;28;20216;-73
2022/01/27 05:04:01;;;;;;;8.35;4.85;;;2.80;99.90;;;;;;5068836;28;20286;-73
2022/01/27 05:06:28;;;;;;;5.18;3.40;;;2.80;99.90;;;;;;5056354;28;20279;-73
2022/01/27 05:08:56;;;;;;;9.70;7.10;;;2.80;99.90;;;;;;5055276;28;20209;-73
2022/01/27 05:11:27;;;;;;;3.45;2.33;;;2.90;99.90;;;;;;5065618;28;20640;-73
2022/01/27 05:13:57;;;;;;;10.98;4.55;;;2.90;99.90;;;;;;5052366;28;20309;-72
2022/01/27 05:16:24;;;;;;;10.68;4.38;;;2.90;99.90;;;;;;5062621;28;20210;-73
2022/01/27 05:18:50;;;;;;;6.53;3.95;;;3.00;99.90;;;;;;5059119;28;20268;-73
2022/01/27 05:21:17;;;;;;;5.85;4.55;;;3.00;99.90;;;;;;5061371;28;20217;-72
2022/01/27 05:23:44;;;;;;;16.65;4.28;;;3.00;99.90;;;;;;5067068;28;20328;-72
2022/01/27 05:26:12;;;;;;;1.98;1.88;;;3.00;99.90;;;;;;5065495;28;20259;-70
2022/01/27 05:28:39;;;;;;;6.43;4.00;;;3.00;99.90;;;;;;5057837;28;20333;-70
2022/01/27 05:31:06;;;;;;;8.98;5.15;;;3.00;99.90;;;;;;5058049;28;20251;-70
2022/01/27 05:33:33;;;;;;;5.72;5.07;;;3.10;99.90;;;;;;5060437;28;20296;-70
2022/01/27 05:35:59;;;;;;;3.90;3.60;;;3.10;99.90;;;;;;5060494;28;20602;-68
2022/01/27 05:38:26;;;;;;;5.05;3.35;;;3.10;99.90;;;;;;5058251;28;20201;-68
2022/01/27 05:40:53;;;;;;;9.57;4.38;;;3.10;99.90;;;;;;5059810;28;20216;-69
2022/01/27 05:43:21;;;;;;;6.03;5.38;;;3.20;99.90;;;;;;5059309;28;20275;-69
2022/01/27 05:45:48;;;;;;;5.28;4.78;;;3.20;99.90;;;;;;5059510;28;20278;-68
2022/01/27 05:48:15;;;;;;;11.38;4.35;;;3.20;99.90;;;;;;5058661;28;20225;-70
2022/01/27 05:50:41;;;;;;;6.55;4.60;;;3.20;99.90;;;;;;5059010;28;20306;-71
2022/01/27 05:53:08;;;;;;;5.72;4.57;;;3.20;99.90;;;;;;5058428;28;20205;-68
2022/01/27 05:55:35;;;;;;;5.55;4.82;;;3.30;99.90;;;;;;5059046;28;20206;-68
2022/01/27 05:58:01;;;;;;;8.20;5.75;;;3.30;99.90;;;;;;5058733;28;20217;-68
2022/01/27 06:00:29;;;;;;;9.10;5.28;;;3.30;99.90;;;;;;5062340;28;20201;-70
2022/01/27 06:02:56;;;;;;;5.93;3.28;;;3.30;99.90;;;;;;5061193;28;20255;-69
2022/01/27 06:05:23;;;;;;;6.10;3.60;;;3.40;99.90;;;;;;5096513;22;20228;-69
2022/01/27 06:07:49;;;;;;;6.97;4.82;;;3.40;99.90;;;;;;5080464;28;20682;-69
2022/01/27 06:10:16;;;;;;;6.72;5.47;;;3.40;99.90;;;;;;5082079;28;20266;-68
2022/01/27 06:12:48;;;;;;;7.70;5.07;;;3.40;99.90;;;;;;5083611;28;20201;-69
2022/01/27 06:15:15;;;;;;;8.80;5.30;;;3.40;99.90;;;;;;5083970;28;20286;-68
2022/01/27 06:17:43;;;;;;;6.28;4.45;;;3.50;99.90;;;;;;5079691;28;20613;-67
2022/01/27 06:20:11;;;;;;;10.02;4.68;;;3.50;99.90;;;;;;5081231;28;20277;-69
2022/01/27 06:22:37;;;;;;;6.05;3.47;;;3.50;99.90;;;;;;5075390;28;20265;-68
2022/01/27 06:25:05;;;;;;;6.60;3.20;;;3.60;99.90;;;;;;5080500;28;20263;-68
2022/01/27 06:27:32;;;;;;;9.50;5.80;;;3.60;99.90;;;;;;5082892;28;20224;-69
2022/01/27 06:29:58;;;;;;;6.20;4.15;;;3.60;99.90;;;;;;5077507;28;20257;-69
2022/01/27 06:32:25;;;;;;;9.45;5.20;;;3.60;99.90;;;;;;5081881;28;20297;-69
2022/01/27 06:34:53;;;;;;;7.22;3.80;;;3.60;99.90;;;;;;5080276;28;20282;-69
2022/01/27 06:37:20;;;;;;;6.55;4.75;;;3.70;99.90;;;;;;5074797;28;20623;-69
2022/01/27 06:39:46;;;;;;;7.38;4.63;;;3.70;99.90;;;;;;5080430;28;20258;-69
2022/01/27 06:42:13;;;;;;;6.88;4.75;;;3.80;99.90;;;;;;5083160;28;20270;-69
2022/01/27 06:44:40;;;;;;;5.20;3.92;;;3.80;99.90;;;;;;5090758;28;20227;-69
2022/01/27 06:47:07;;;;;;;6.53;4.93;;;3.90;99.90;;;;;;5087555;28;20209;-69
2022/01/27 06:49:34;;;;;;;9.35;4.80;;;4.00;99.90;;;;;;5086505;28;20211;-69
2022/01/27 06:52:02;;;;;;;6.80;6.20;;;4.10;99.90;;;;;;5082910;28;20647;-69
2022/01/27 06:54:28;;;;;;;6.97;5.50;;;4.10;99.90;;;;;;5083736;28;20712;-69
2022/01/27 06:56:55;;;;;;;5.40;4.50;;;4.20;99.90;;;;;;5084240;28;20697;-70
2022/01/27 06:59:22;;;;;;;7.82;5.93;;;4.30;99.90;;;;;;5074131;28;20233;-69
2022/01/27 07:01:48;;;;;;;10.10;5.60;;;4.40;99.90;;;;;;5081060;28;20223;-69
2022/01/27 07:04:15;;;;;;;6.40;4.45;;;4.60;99.90;;;;;;5081031;28;20305;-69
2022/01/27 07:06:42;;;;;;;7.88;5.03;;;4.70;99.90;;;;;;5075515;28;20571;-69
2022/01/27 07:09:10;;;;;;;5.53;4.75;;;4.80;99.90;;;;;;5070699;28;20299;-69
2022/01/27 07:11:36;;;;;;;6.57;4.20;;;4.90;99.90;;;;;;5086809;28;20196;-70
2022/01/27 07:14:03;;;;;;;5.95;4.43;;;4.90;99.90;;;;;;5084879;28;20220;-69
2022/01/27 07:16:31;;;;;;;8.85;6.30;;;5.00;99.90;;;;;;5072976;28;20610;-69
2022/01/27 07:18:57;;;;;;;8.00;4.70;;;5.10;99.90;;;;;;5073820;28;20193;-70
2022/01/27 07:21:24;;;;;;;6.60;4.85;;;5.10;99.90;;;;;;5082358;28;20205;-70
2022/01/27 07:23:50;;;;;;;7.22;4.20;;;5.30;99.90;;;;;;5080072;28;20270;-69
2022/01/27 07:26:24;;;;;;;7.47;5.35;;;5.30;99.90;;;;;;5077190;28;20216;-69
2022/01/27 07:28:51;;;;;;;13.32;5.68;;;5.40;99.90;;;;;;5081976;28;20488;-70
2022/01/27 07:31:18;;;;;;;6.10;5.60;;;5.40;99.90;;;;;;5085895;28;20224;-69
2022/01/27 07:33:44;;;;;;;7.18;4.05;;;5.40;99.90;;;;;;5085058;28;20273;-69
2022/01/27 07:36:11;;;;;;;6.15;5.15;;;5.30;99.90;;;;;;5083996;28;20214;-70
2022/01/27 07:38:38;;;;;;;5.60;5.00;;;5.40;99.90;;;;;;5080688;28;20654;-70
2022/01/27 07:41:04;;;;;;;6.97;5.03;;;5.40;99.90;;;;;;5076140;28;20235;-70
2022/01/27 07:43:32;;;;;;;6.70;3.85;;;5.40;99.90;;;;;;5074552;28;20213;-70
2022/01/27 07:45:59;;;;;;;7.65;5.57;;;5.50;99.90;;;;;;5087239;28;20254;-70
2022/01/27 07:48:26;;;;;;;6.50;4.20;;;5.50;99.90;;;;;;5084677;28;20231;-70
2022/01/27 07:50:53;;;;;;;8.00;5.40;;;5.50;99.90;;;;;;5072586;28;20255;-70
2022/01/27 07:53:21;;;;;;;8.25;5.32;;;5.50;99.90;;;;;;5079019;28;20262;-70
2022/01/27 07:55:48;;;;;;;8.75;5.85;;;5.50;99.90;;;;;;5079430;28;20220;-69
2022/01/27 07:58:15;;;;;;;9.30;5.97;;;5.50;99.90;;;;;;5079164;28;20430;-69
2022/01/27 08:00:43;;;;;;;7.40;5.30;;;5.50;99.90;;;;;;5075145;28;20502;-70
2022/01/27 08:03:09;;;;;;;8.02;5.72;;;5.50;99.90;;;;;;5076732;28;20204;-70
2022/01/27 08:05:36;;;;;;;8.13;4.95;;;5.60;99.90;;;;;;5085538;28;20460;-69
2022/01/27 08:08:03;;;;;;;6.95;4.88;;;5.60;99.90;;;;;;5086413;28;20225;-69
2022/01/27 08:10:36;;;;;;;10.15;5.85;;;5.60;99.90;;;;;;5070963;28;20250;-69
2022/01/27 08:13:03;;;;;;;7.72;5.35;;;5.60;99.90;;;;;;5073588;28;20204;-69
2022/01/27 08:15:30;;;;;;;5.70;4.38;;;5.70;99.90;;;;;;5082211;28;20216;-69
2022/01/27 08:17:58;;;;;;;7.95;6.32;;;5.70;99.90;;;;;;5084154;28;20196;-70
2022/01/27 08:20:24;;;;;;;7.05;4.97;;;5.70;99.90;;;;;;5081898;28;20590;-70
2022/01/27 08:22:53;;;;;;;8.05;4.95;;;5.80;99.90;;;;;;5079798;28;20208;-72
2022/01/27 08:25:20;;;;;;;6.60;5.28;;;5.80;99.90;;;;;;5081282;28;20293;-72
2022/01/27 08:27:48;;;;;;;6.70;4.63;;;5.90;99.90;;;;;;5082031;28;20224;-71
2022/01/27 08:30:17;;;;;;;9.18;5.57;;;5.90;99.90;;;;;;5085187;28;20295;-71
2022/01/27 08:32:50;;;;;;;10.68;5.10;;;5.90;99.90;;;;;;5081327;28;20281;-70
2022/01/27 08:35:19;;;;;;;7.15;5.43;;;5.90;99.90;;;;;;5079134;28;20321;-71
2022/01/27 08:37:46;;;;;;;7.35;5.00;;;6.00;99.90;;;;;;5080585;28;20209;-70
2022/01/27 08:40:15;;;;;;;7.97;6.60;;;6.10;99.90;;;;;;5081931;28;20209;-71
2022/01/27 08:42:43;;;;;;;9.32;5.55;;;6.10;99.90;;;;;;5079020;28;20277;-71
2022/01/27 08:45:10;;;;;;;7.72;6.93;;;6.10;99.90;;;;;;5080519;28;20307;-70
2022/01/27 08:47:38;;;;;;;10.60;4.95;;;6.10;99.90;;;;;;5086307;28;20220;-70
2022/01/27 08:50:08;;;;;;;11.18;6.55;;;6.20;99.90;;;;;;5086471;28;20212;-71
2022/01/27 08:52:36;;;;;;;7.88;5.60;;;6.10;99.90;;;;;;5080491;28;20266;-69
2022/01/27 08:55:03;;;;;;;6.40;4.85;;;6.20;99.90;;;;;;5076947;28;20250;-69
2022/01/27 08:57:30;;;;;;;6.70;3.78;;;6.20;99.90;;;;;;5080361;28;20208;-68
2022/01/27 08:59:57;;;;;;;8.40;6.63;;;6.20;99.90;;;;;;5077786;28;20193;-70
2022/01/27 09:02:23;;;;;;;6.30;5.65;;;6.30;99.90;;;;;;5070098;28;20231;-68
2022/01/27 09:04:50;;;;;;;5.32;4.82;;;6.30;99.90;;;;;;5065305;28;20243;-69
2022/01/27 09:07:17;;;;;;;6.53;5.88;;;6.30;99.90;;;;;;5068171;28;20273;-68
2022/01/27 09:09:45;;;;;;;12.35;7.78;;;6.40;99.90;;;;;;5084431;28;20269;-68
2022/01/27 09:12:13;;;;;;;10.00;5.00;;;6.40;99.90;;;;;;5084419;28;20263;-68
2022/01/27 09:14:42;;;;;;;7.45;5.18;;;6.30;99.90;;;;;;5080444;28;20224;-69
2022/01/27 09:17:09;;;;;;;5.05;4.00;;;6.40;99.90;;;;;;5090119;28;20228;-69
2022/01/27 09:19:38;;;;;;;7.72;4.93;;;6.40;99.90;;;;;;5079178;28;20670;-69
2022/01/27 09:22:11;;;;;;;9.00;5.25;;;6.40;99.90;;;;;;5087574;28;20295;-69
2022/01/27 09:24:40;;;;;;;73.82;47.47;;;6.40;99.90;;;;;;5093919;28;20344;-74
2022/01/27 09:27:08;;;;;;;9.15;4.22;;;6.40;99.90;;;;;;5077066;28;20201;-68
2022/01/27 09:29:35;;;;;;;8.70;4.68;;;6.40;99.90;;;;;;5070693;28;20236;-68
2022/01/27 09:32:03;;;;;;;9.38;5.20;;;6.40;99.90;;;;;;5076250;28;20291;-68
2022/01/27 09:34:30;;;;;;;5.28;4.53;;;6.40;99.90;;;;;;5084123;28;20682;-70
2022/01/27 09:36:57;;;;;;;6.88;5.00;;;6.40;99.90;;;;;;5063785;28;20837;-70
2022/01/27 09:39:24;;;;;;;13.95;7.47;;;6.30;99.90;;;;;;5075275;28;20691;-68
2022/01/27 09:41:56;;;;;;;5.97;5.38;;;6.20;99.90;;;;;;5084172;28;20234;-69
2022/01/27 09:44:28;;;;;;;6.72;5.15;;;6.20;99.90;;;;;;5080070;28;20238;-68
2022/01/27 09:46:56;;;;;;;6.53;4.10;;;6.10;99.90;;;;;;5080062;28;20243;-69
2022/01/27 09:49:31;;;;;;;10.48;5.72;;;6.00;99.90;;;;;;5079550;28;20228;-70
2022/01/27 09:51:58;;;;;;;6.47;4.07;;;6.00;99.90;;;;;;5073848;28;20301;-69
2022/01/27 09:54:25;;;;;;;9.52;6.93;;;5.90;99.90;;;;;;5080792;28;20298;-69
2022/01/27 09:56:53;;;;;;;6.97;6.30;;;5.90;99.90;;;;;;5073560;28;20297;-69
2022/01/27 09:59:20;;;;;;;5.35;4.55;;;5.80;99.90;;;;;;5085321;28;20212;-69
2022/01/27 10:01:57;;;;;;;9.77;4.80;;;5.80;99.90;;;;;;5082695;28;20205;-68
2022/01/27 10:04:40;;;;;;;5.45;4.88;;;5.80;99.90;;;;;;5073959;28;20320;-67
2022/01/27 10:07:07;;;;;;;12.93;5.78;;;5.70;99.90;;;;;;5070803;28;20227;-67
2022/01/27 10:09:34;;;;;;;8.98;5.47;;;5.70;99.90;;;;;;5082299;28;20269;-69
2022/01/27 10:12:03;;;;;;;7.38;6.70;;;5.70;99.90;;;;;;5069447;28;20239;-68
2022/01/27 10:14:33;;;;;;;4.53;3.83;;;5.70;99.90;;;;;;5075455;28;20257;-68
2022/01/27 10:17:03;;;;;;;6.60;5.53;;;5.70;99.90;;;;;;5066434;28;20292;-73
2022/01/27 10:19:30;;;;;;;4.93;4.40;;;5.70;99.90;;;;;;5086422;28;20197;-70
2022/01/27 10:22:01;;;;;;;10.15;9.15;;;5.70;99.90;;;;;;5073232;28;20976;-70
2022/01/27 10:24:30;;;;;;;9.15;5.82;;;5.70;99.90;;;;;;5077714;28;20300;-69
2022/01/27 10:27:24;;;;;;;7.35;5.28;;;5.70;99.90;;;;;;5070940;28;20209;-69
2022/01/27 10:30:35;;;;;;;5.72;5.22;;;5.80;99.90;;;;;;5068093;28;20681;-70
2022/01/27 10:32:55;;;;;;;7.93;3.90;;;5.80;99.90;;;;;;5072985;28;20201;-69
2022/01/27 10:35:25;;;;;;;8.63;4.30;;;5.80;99.90;;;;;;5087550;28;20258;-69
2022/01/27 10:37:57;;;;;;;5.47;4.63;;;5.70;99.90;;;;;;5081123;28;20706;-69
2022/01/27 10:40:27;;;;;;;8.25;6.10;;;5.70;99.90;;;;;;5078059;28;20725;-68
2022/01/27 10:43:09;;;;;;;4.15;3.75;;;5.80;99.90;;;;;;5074949;28;20258;-66
2022/01/27 10:45:40;;;;;;;8.73;4.50;;;5.70;99.90;;;;;;5068308;28;20574;-69
2022/01/27 10:48:14;;;;;;;6.25;4.32;;;5.70;99.90;;;;;;5078916;28;20299;-68
2022/01/27 10:50:50;;;;;;;5.95;4.15;;;5.70;99.90;;;;;;5074999;28;20291;-66
2022/01/27 10:53:18;;;;;;;6.72;6.03;;;5.70;99.90;;;;;;5071161;28;20209;-66
2022/01/27 10:55:45;;;;;;;5.60;5.13;;;5.70;99.90;;;;;;5080279;28;20297;-66
2022/01/27 10:58:25;;;;;;;7.20;4.97;;;5.70;99.90;;;;;;5080566;28;20799;-66
2022/01/27 11:00:57;;;;;;;5.75;4.80;;;5.80;99.90;;;;;;5087197;28;20276;-66
2022/01/27 11:03:26;;;;;;;5.32;4.47;;;5.80;99.90;;;;;;5087203;28;20219;-68
2022/01/27 11:05:54;;;;;;;4.55;3.00;;;5.80;99.90;;;;;;5072065;28;20241;-67
2022/01/27 11:08:23;;;;;;;4.18;3.60;;;5.80;99.90;;;;;;5086182;28;20204;-67
2022/01/27 11:10:51;;;;;;;5.68;3.70;;;5.80;99.90;;;;;;5081121;28;20205;-67
2022/01/27 11:13:19;;;;;;;9.02;5.93;;;5.80;99.90;;;;;;5084116;28;20807;-68
2022/01/27 11:15:46;;;;;;;6.35;3.95;;;5.80;99.90;;;;;;5067804;28;20225;-67
2022/01/27 11:18:15;;;;;;;5.20;3.92;;;5.80;99.90;;;;;;5080525;28;20657;-67
2022/01/27 11:20:54;;;;;;;6.03;4.15;;;5.80;99.90;;;;;;5081350;28;20194;-67
2022/01/27 11:23:47;;;;;;;7.90;3.42;;;5.90;99.90;;;;;;5071634;28;20266;-67
2022/01/27 11:26:16;;;;;;;10.05;3.88;;;5.90;99.90;;;;;;5069901;28;20603;-70
2022/01/27 11:28:47;;;;;;;4.15;3.75;;;5.90;99.90;;;;;;5079560;28;20217;-68
2022/01/27 11:31:25;;;;;;;8.52;4.40;;;5.90;99.90;;;;;;5072542;28;20221;-69
2022/01/27 11:34:00;;;;;;;6.60;4.90;;;6.00;99.90;;;;;;5086193;28;20289;-70
2022/01/27 11:36:29;;;;;;;3.75;2.92;;;6.00;99.90;;;;;;5081183;28;20192;-70
2022/01/27 11:38:57;;;;;;;4.88;3.70;;;6.00;99.90;;;;;;5095267;28;20204;-70
2022/01/27 11:41:48;;;;;;;4.45;3.03;;;6.00;99.90;;;;;;5080250;28;20242;-70
2022/01/27 11:44:33;;;;;;;6.68;2.78;;;6.00;99.90;;;;;;5066007;28;20225;-70
2022/01/27 11:47:19;;;;;;;4.00;3.25;;;6.00;99.90;;;;;;5068755;28;20227;-69
2022/01/27 11:49:53;;;;;;;5.07;3.53;;;6.10;99.90;;;;;;5079797;28;20216;-70
2022/01/27 11:52:23;;;;;;;4.00;2.95;;;6.10;99.90;;;;;;5085459;28;20209;-69
2022/01/27 11:54:50;;;;;;;2.80;2.60;;;6.20;99.90;;;;;;5082444;28;20646;-69
2022/01/27 11:57:38;;;;;;;3.05;2.75;;;6.20;99.90;;;;;;5087080;28;20208;-68
2022/01/27 12:00:11;;;;;;;2.90;2.58;;;6.10;99.90;;;;;;5077407;28;20200;-70
2022/01/27 12:03:08;;;;;;;3.85;3.38;;;6.20;99.90;;;;;;5070614;28;20670;-70
2022/01/27 12:05:36;;;;;;;4.07;2.65;;;6.20;99.90;;;;;;5076048;22;20240;-69
2022/01/27 12:08:24;;;;;;;5.75;3.15;;;6.10;99.90;;;;;;5058991;28;20198;-69
2022/01/27 12:10:55;;;;;;;4.57;1.73;;;6.20;99.90;;;;;;5063126;28;20245;-69
2022/01/27 12:13:57;;;;;;;4.13;3.83;;;6.20;99.90;;;;;;5061943;28;20213;-70
2022/01/27 12:16:39;;;;;;;6.75;3.92;;;6.10;99.90;;;;;;5042381;28;20202;-69
2022/01/27 12:19:08;;;;;;;8.30;3.58;;;6.20;99.90;;;;;;5048079;28;20213;-69
2022/01/27 12:21:38;;;;;;;3.00;2.80;;;6.20;99.90;;;;;;5046535;28;20369;-69
2022/01/27 12:24:25;;;;;;;3.72;3.17;;;6.20;99.90;;;;;;5054091;28;20213;-68
2022/01/27 12:26:53;;;;;;;5.80;4.03;;;6.20;99.90;;;;;;5036645;28;20264;-68
2022/01/27 12:29:24;;;;;;;4.18;3.20;;;6.20;99.90;;;;;;5049964;28;20613;-68
2022/01/27 12:31:52;;;;;;;2.50;2.30;;;6.20;99.90;;;;;;5045389;28;20248;-69
2022/01/27 12:34:19;;;;;;;4.80;3.35;;;6.20;99.90;;;;;;5035168;28;20229;-69
2022/01/27 12:37:00;;;;;;;6.47;4.88;;;6.20;99.90;;;;;;5045516;28;20272;-68
2022/01/27 12:39:30;;;;;;;4.28;3.95;;;6.20;99.90;;;;;;5040767;28;20619;-69
2022/01/27 12:42:00;;;;;;;4.43;3.30;;;6.20;99.90;;;;;;5042796;28;20214;-69
2022/01/27 12:44:28;;;;;;;7.60;4.38;;;6.20;99.90;;;;;;5037294;28;20222;-69
2022/01/27 12:47:05;;;;;;;3.67;3.38;;;6.20;99.90;;;;;;5034360;28;20290;-69
2022/01/27 12:49:38;;;;;;;2.63;2.30;;;6.20;99.90;;;;;;5036301;28;20436;-69
2022/01/27 12:52:08;;;;;;;2.97;2.35;;;6.20;99.90;;;;;;5045062;28;20252;-68
2022/01/27 12:54:36;;;;;;;3.88;2.72;;;6.20;99.90;;;;;;5043221;28;20305;-67
2022/01/27 12:57:04;;;;;;;6.93;3.90;;;6.20;99.90;;;;;;5048254;28;20217;-68
2022/01/27 12:59:31;;;;;;;2.90;2.63;;;6.20;99.90;;;;;;5053257;28;20709;-67
2022/01/27 13:01:59;;;;;;;3.75;2.65;;;6.20;99.90;;;;;;5061437;28;20237;-67
2022/01/27 13:04:27;;;;;;;2.05;1.85;;;6.20;99.90;;;;;;5049198;28;20284;-69
2022/01/27 13:06:54;;;;;;;3.30;3.00;;;6.20;99.90;;;;;;5049297;28;20627;-67
2022/01/27 13:09:21;;;;;;;3.75;3.17;;;6.20;99.90;;;;;;5048692;28;20222;-69
2022/01/27 13:11:52;;;;;;;5.50;3.30;;;6.30;99.90;;;;;;5049499;28;20267;-68
2022/01/27 13:14:19;;;;;;;3.38;3.08;;;6.30;99.90;;;;;;5049284;28;20225;-69
2022/01/27 13:16:51;;;;;;;3.08;2.78;;;6.40;99.90;;;;;;5048739;28;20210;-67
2022/01/27 13:19:23;;;;;;;2.83;2.60;;;6.40;99.90;;;;;;5041731;28;20623;-68
2022/01/27 13:22:00;;;;;;;2.05;1.63;;;6.40;99.90;;;;;;5036613;28;20301;-66
2022/01/27 13:24:28;;;;;;;2.42;1.90;;;6.40;99.90;;;;;;5043712;28;20221;-68